X  Close Metar Aviation Weather Data     KPNS Pensacola International Airport
Temperature
79°F Temperature
32°F Dewpoint
18% Humidity



Wind
9 MPH
14 KM/H
4 M/S
8 KTS



340°
NNW
Current Conditions

Clear Clear
Pressure 1025.06 (hPa) - 30.27 (inHg)
Visibility 10 (mile) - 16.1 (km)
Airport
Airport-code KPNS

Location: Pensacola International Airport
Distance: 9 (mi)

Metar:
KPNS 131753Z 34008KT 10SM CLR 26/00 A3027 RMK AO2 SLP253 T02610000 10272 20128 58016

Time: 13-04-2024 17:53 CDT